Time;durP1;ratioP1;P1;durP2;ratioP2;P2;SDS_P1;SDS_P2;PMS_P1;PMS_P2;Temp;Humidity;BMP_temperature;BMP_pressure;BME280_temperature;BME280_humidity;BME280_pressure;Samples;Min_cycle;Max_cycle;Signal;HPM_P1;HPM_P2
2022/02/25 00:02:01;;;;;;;7.75;3.98;;;;;;;7.47;57.55;99512.16;2190932;79;20977;-77
2022/02/25 00:05:03;;;;;;;8.10;4.10;;;;;;;7.43;57.52;99514.27;2185313;79;22168;-76
2022/02/25 00:08:05;;;;;;;6.12;3.65;;;;;;;7.42;57.58;99523.19;2156733;81;21076;-76
2022/02/25 00:11:06;;;;;;;9.18;4.47;;;;;;;7.42;57.63;99519.23;2187475;79;22635;-76
2022/02/25 00:14:08;;;;;;;10.85;4.15;;;;;;;7.40;57.61;99518.55;2188204;79;21100;-76
2022/02/25 00:17:10;;;;;;;9.75;4.08;;;;;;;7.43;57.67;99512.95;2155046;80;21646;-76
2022/02/25 00:20:12;;;;;;;6.75;3.50;;;;;;;7.44;57.67;99513.30;2154059;81;21039;-78
2022/02/25 00:23:14;;;;;;;12.60;4.15;;;;;;;7.43;57.70;99516.91;2213596;79;20981;-76
2022/02/25 00:26:15;;;;;;;11.20;4.30;;;;;;;7.45;57.79;99528.14;2180403;80;21075;-75
2022/02/25 00:29:17;;;;;;;8.88;4.40;;;;;;;7.47;57.87;99524.03;2153557;81;21068;-76
2022/02/25 00:32:18;;;;;;;8.70;4.00;;;;;;;7.47;57.91;99524.86;2208320;80;20997;-76
2022/02/25 00:35:20;;;;;;;6.97;3.90;;;;;;;7.49;57.88;99532.59;2156503;81;21028;-76
2022/02/25 00:38:21;;;;;;;8.00;3.77;;;;;;;7.53;57.98;99537.91;2212856;80;21055;-75
2022/02/25 00:41:22;;;;;;;8.60;4.25;;;;;;;7.55;58.00;99542.54;2210272;80;21005;-76
2022/02/25 00:44:24;;;;;;;9.70;4.00;;;;;;;7.54;57.98;99541.69;2210525;80;21075;-76
2022/02/25 00:47:25;;;;;;;11.28;3.65;;;;;;;7.54;57.99;99543.00;2207796;80;21001;-76
2022/02/25 00:50:27;;;;;;;7.90;3.87;;;;;;;7.56;57.99;99541.04;2207751;80;21503;-76
2022/02/25 00:53:29;;;;;;;7.65;3.60;;;;;;;7.57;58.03;99542.71;2210865;79;21060;-76
2022/02/25 00:56:30;;;;;;;8.75;4.37;;;;;;;7.58;58.00;99552.77;2213872;79;21033;-74
2022/02/25 00:59:31;;;;;;;10.03;4.10;;;;;;;7.58;58.08;99546.17;2213728;79;21041;-76
2022/02/25 01:02:33;;;;;;;9.53;3.60;;;;;;;7.57;58.18;99563.84;2216772;79;21056;-76
2022/02/25 01:05:34;;;;;;;11.05;3.77;;;;;;;7.55;58.36;99588.73;2216870;79;21051;-76
2022/02/25 01:08:36;;;;;;;11.43;4.30;;;;;;;7.48;58.62;99625.98;2213027;79;21039;-76
2022/02/25 01:11:38;;;;;;;8.03;3.98;;;;;;;7.47;58.83;99644.14;2217892;79;22236;-76
2022/02/25 01:14:40;;;;;;;9.65;4.45;;;;;;;7.45;59.07;99647.42;2214027;79;21079;-76
2022/02/25 01:17:42;;;;;;;9.08;3.37;;;;;;;7.34;59.38;99645.39;2217929;79;20961;-76
2022/02/25 01:20:43;;;;;;;6.08;3.02;;;;;;;7.27;59.43;99654.94;2162820;81;21038;-75
2022/02/25 01:23:45;;;;;;;5.70;2.62;;;;;;;7.21;59.60;99671.40;2210063;79;21086;-78
2022/02/25 01:26:47;;;;;;;2.10;1.40;;;;;;;7.16;59.28;99667.89;2212616;79;21033;-76
2022/02/25 01:29:48;;;;;;;1.22;0.93;;;;;;;7.12;58.17;99662.61;2210258;79;21048;-76
2022/02/25 01:32:50;;;;;;;1.27;1.00;;;;;;;7.07;57.42;99668.84;2148981;81;21040;-75
2022/02/25 01:35:51;;;;;;;1.98;1.27;;;;;;;7.03;57.61;99695.67;2167499;81;21814;-75
2022/02/25 01:38:52;;;;;;;1.32;1.07;;;;;;;6.93;57.64;99693.96;2190159;79;20996;-76
2022/02/25 01:41:55;;;;;;;1.90;1.00;;;;;;;6.84;57.43;99700.16;2181896;79;21001;-76
2022/02/25 01:44:57;;;;;;;1.70;0.90;;;;;;;6.76;57.44;99690.86;2181879;79;21013;-76
2022/02/25 01:47:59;;;;;;;1.07;0.80;;;;;;;6.67;57.36;99696.56;2152270;81;22408;-76
2022/02/25 01:51:00;;;;;;;0.82;0.80;;;;;;;6.57;57.27;99707.67;2215385;79;21013;-76
2022/02/25 01:54:02;;;;;;;0.90;0.85;;;;;;;6.46;57.43;99711.34;2220199;79;21041;-76
2022/02/25 01:57:05;;;;;;;0.75;0.75;;;;;;;6.34;57.83;99706.47;2208556;79;21096;-77
2022/02/25 02:00:08;;;;;;;0.80;0.70;;;;;;;6.21;58.22;99722.12;2217783;79;21070;-75
2022/02/25 02:03:12;;;;;;;0.80;0.80;;;;;;;6.12;58.56;99730.10;2210468;79;21088;-76
2022/02/25 02:06:14;;;;;;;1.10;0.78;;;;;;;6.01;58.80;99729.81;2214371;79;21072;-76
2022/02/25 02:09:16;;;;;;;2.08;0.80;;;;;;;5.92;58.80;99723.59;2210593;79;21069;-76
2022/02/25 02:12:18;;;;;;;0.70;0.70;;;;;;;5.78;59.03;99718.31;2211154;79;20989;-76
2022/02/25 02:15:20;;;;;;;1.80;0.80;;;;;;;5.68;59.24;99726.73;2217515;79;21001;-76
2022/02/25 02:18:21;;;;;;;0.60;0.60;;;;;;;5.58;59.43;99712.80;2219458;79;21024;-76
2022/02/25 02:21:26;;;;;;;1.95;0.95;;;;;;;5.50;59.89;99732.42;2153296;81;21088;-75
2022/02/25 02:24:28;;;;;;;0.82;0.70;;;;;;;5.43;60.19;99752.38;2215817;79;21690;-78
2022/02/25 02:30:52;;;;;;;1.40;0.80;;;;;;;5.19;60.53;99752.85;2212839;79;21594;-75
2022/02/25 02:33:53;;;;;;;1.98;0.80;;;;;;;5.03;61.15;99758.67;2208134;79;21028;-74
2022/02/25 02:36:55;;;;;;;0.70;0.70;;;;;;;4.88;62.20;99777.50;2212933;79;21020;-76
2022/02/25 02:39:56;;;;;;;2.10;0.80;;;;;;;4.76;61.87;99804.05;2188780;79;21041;-74
2022/02/25 02:42:57;;;;;;;1.02;0.60;;;;;;;4.66;62.72;99814.56;2212760;79;21049;-74
2022/02/25 02:45:59;;;;;;;0.95;0.70;;;;;;;4.57;62.85;99821.47;2217028;79;21072;-77
2022/02/25 02:49:01;;;;;;;2.52;0.85;;;;;;;4.45;63.83;99823.88;2216327;79;21028;-74
2022/02/25 02:52:03;;;;;;;0.60;0.60;;;;;;;4.37;63.79;99823.70;2217301;79;21021;-74
2022/02/25 02:55:06;;;;;;;1.27;0.70;;;;;;;4.30;63.90;99836.53;2208721;79;21060;-74
2022/02/25 02:58:08;;;;;;;1.00;1.00;;;;;;;4.24;64.42;99842.31;2212864;79;21037;-74
2022/02/25 03:01:10;;;;;;;0.80;0.80;;;;;;;4.21;64.40;99841.27;2207431;79;21010;-75
2022/02/25 03:04:12;;;;;;;1.42;1.10;;;;;;;4.19;64.82;99840.56;2175731;80;20982;-75
2022/02/25 03:07:14;;;;;;;0.98;0.98;;;;;;;4.15;65.10;99841.31;2172206;80;21032;-74
2022/02/25 03:10:16;;;;;;;0.90;0.90;;;;;;;4.12;65.60;99842.07;2157150;81;21082;-74
2022/02/25 03:13:18;;;;;;;2.15;1.10;;;;;;;4.08;65.55;99853.30;2206262;80;21005;-74
2022/02/25 03:16:19;;;;;;;1.85;1.27;;;;;;;4.04;65.80;99853.23;2205773;80;21016;-74
2022/02/25 03:19:21;;;;;;;1.00;0.90;;;;;;;4.02;65.61;99853.34;2205305;80;21033;-73
2022/02/25 03:22:25;;;;;;;1.40;1.20;;;;;;;3.99;66.15;99865.91;2205565;80;20986;-74
2022/02/25 03:25:30;;;;;;;2.52;1.40;;;;;;;3.94;66.36;99875.50;2210986;80;21034;-74
2022/02/25 03:28:31;;;;;;;1.45;1.25;;;;;;;3.91;66.42;99869.17;2209076;80;21053;-74
2022/02/25 03:31:33;;;;;;;1.67;1.42;;;;;;;3.87;66.77;99873.03;2210051;80;21025;-74
2022/02/25 03:34:34;;;;;;;2.08;1.75;;;;;;;3.85;67.16;99888.07;2207776;80;21013;-74
2022/02/25 03:37:36;;;;;;;1.65;1.40;;;;;;;3.82;66.75;99891.78;2207726;80;20982;-74
2022/02/25 03:40:37;;;;;;;1.37;1.27;;;;;;;3.80;67.15;99903.38;2206353;80;21005;-74
2022/02/25 03:43:39;;;;;;;1.50;1.40;;;;;;;3.78;67.09;99901.37;2210203;80;21071;-74
2022/02/25 03:46:40;;;;;;;2.08;1.50;;;;;;;3.76;67.21;99915.09;2206176;80;21009;-74
2022/02/25 03:49:41;;;;;;;1.42;1.32;;;;;;;3.72;67.54;99911.91;2205433;80;21489;-74
2022/02/25 03:52:44;;;;;;;1.30;1.20;;;;;;;3.69;67.53;99927.91;2203719;80;21060;-74
2022/02/25 03:55:45;;;;;;;1.40;1.30;;;;;;;3.68;67.77;99933.27;2208028;80;21096;-75
2022/02/25 03:58:47;;;;;;;1.80;1.25;;;;;;;3.65;67.51;99938.77;2206709;80;21605;-74
2022/02/25 04:01:52;;;;;;;1.40;1.30;;;;;;;3.64;67.81;99939.26;2205372;80;21068;-76
2022/02/25 04:04:52;;;;;;;1.98;1.30;;;;;;;3.62;67.50;99954.29;2212391;80;21030;-74
2022/02/25 04:07:53;;;;;;;3.87;1.30;;;;;;;3.60;67.48;99956.20;2208737;80;21045;-74
2022/02/25 04:10:55;;;;;;;2.08;1.50;;;;;;;3.58;67.60;99968.14;2203997;80;21052;-73
2022/02/25 04:13:56;;;;;;;1.75;1.65;;;;;;;3.57;68.29;99965.63;2206549;80;22356;-74
2022/02/25 04:16:58;;;;;;;2.00;1.67;;;;;;;3.57;67.95;99973.50;2207800;80;21068;-73
2022/02/25 04:19:59;;;;;;;2.75;2.10;;;;;;;3.58;67.80;99972.08;2209540;80;20993;-74
2022/02/25 04:23:03;;;;;;;1.92;1.70;;;;;;;3.59;68.05;99978.16;2205409;80;21009;-74
2022/02/25 04:26:04;;;;;;;2.45;1.90;;;;;;;3.57;68.01;99978.27;2208489;80;21053;-74
2022/02/25 04:29:06;;;;;;;3.33;1.75;;;;;;;3.54;68.01;99991.64;2208659;80;21040;-74
2022/02/25 04:32:08;;;;;;;2.40;2.00;;;;;;;3.53;68.26;99993.92;2205161;80;21026;-74
2022/02/25 04:35:10;;;;;;;4.75;2.42;;;;;;;3.51;68.86;99993.20;2203850;80;21567;-75
2022/02/25 04:38:11;;;;;;;1.92;1.70;;;;;;;3.49;68.73;100011.33;2208720;80;21607;-74
2022/02/25 04:41:13;;;;;;;1.82;1.72;;;;;;;3.45;68.78;100024.36;2208003;80;21572;-74
2022/02/25 04:44:16;;;;;;;2.22;2.02;;;;;;;3.35;69.30;100017.69;2210231;80;21516;-73
2022/02/25 04:47:18;;;;;;;2.92;2.10;;;;;;;3.10;69.56;100040.63;2207068;80;21033;-75
2022/02/25 04:50:19;;;;;;;2.50;2.30;;;;;;;2.88;70.83;100041.95;2204853;80;21555;-74
2022/02/25 04:53:21;;;;;;;2.45;2.25;;;;;;;2.63;71.09;100042.53;2162155;81;21457;-74
2022/02/25 04:56:23;;;;;;;3.92;2.33;;;;;;;2.44;71.68;100035.72;2157211;79;21498;-74
2022/02/25 04:59:25;;;;;;;4.37;2.08;;;;;;;2.29;71.82;100046.05;2152002;81;21090;-73
2022/02/25 05:02:26;;;;;;;1.92;1.82;;;;;;;2.13;72.83;100055.52;2149543;80;21009;-74
2022/02/25 05:05:28;;;;;;;4.45;2.52;;;;;;;2.04;72.53;100057.52;2152350;80;20993;-73
2022/02/25 05:08:30;;;;;;;2.45;2.15;;;;;;;1.97;73.17;100061.90;2156306;80;21578;-76
2022/02/25 05:11:31;;;;;;;2.40;2.20;;;;;;;1.93;73.06;100070.08;2149265;80;21615;-74
2022/02/25 05:21:15;;;;;;;3.25;2.40;;;;;;;1.86;73.51;100080.62;2165760;81;21546;-75
2022/02/25 05:24:17;;;;;;;4.70;2.50;;;;;;;1.82;73.81;100101.42;2164624;81;21063;-76
2022/02/25 05:27:22;;;;;;;4.28;2.47;;;;;;;1.75;73.40;100108.41;2159980;80;21046;-77
2022/02/25 05:30:25;;;;;;;5.28;2.60;;;;;;;1.70;73.67;100109.69;2160230;81;21060;-74
2022/02/25 05:33:27;;;;;;;2.95;2.12;;;;;;;1.66;73.23;100119.55;2166289;80;21059;-74
2022/02/25 05:36:28;;;;;;;3.65;2.45;;;;;;;1.60;73.24;100119.95;2165933;80;21028;-75
2022/02/25 05:39:29;;;;;;;3.52;2.08;;;;;;;1.55;73.82;100124.70;2166019;80;21008;-75
2022/02/25 05:42:32;;;;;;;2.35;2.10;;;;;;;1.50;73.41;100129.42;2170129;80;21095;-72
2022/02/25 05:45:34;;;;;;;2.70;2.50;;;;;;;1.45;73.35;100140.19;2155508;81;21077;-80
2022/02/25 05:48:36;;;;;;;4.65;2.60;;;;;;;1.40;73.47;100144.08;2154312;81;22204;-73
2022/02/25 05:51:37;;;;;;;3.33;2.67;;;;;;;1.37;73.97;100158.67;2170477;81;21049;-78
2022/02/25 05:54:39;;;;;;;2.85;2.60;;;;;;;1.36;73.89;100164.38;2173987;79;21120;-74
2022/02/25 05:57:40;;;;;;;3.65;2.90;;;;;;;1.33;73.94;100160.67;2180790;79;21020;-74
2022/02/25 06:00:42;;;;;;;6.17;3.40;;;;;;;1.35;73.96;100165.30;2178432;79;21017;-80
2022/02/25 06:03:44;;;;;;;6.60;3.80;;;;;;;1.36;74.20;100174.00;2183391;79;21080;-76
2022/02/25 06:06:45;;;;;;;7.45;3.27;;;;;;;1.36;74.42;100173.53;2179857;79;21021;-77
2022/02/25 06:09:49;;;;;;;4.90;3.30;;;;;;;1.38;74.30;100190.40;2181873;79;21009;-76
2022/02/25 06:12:50;;;;;;;3.77;3.20;;;;;;;1.68;74.68;100193.49;2185744;79;21069;-82
2022/02/25 06:15:52;;;;;;;3.67;2.85;;;;;;;2.12;74.69;100203.89;2180876;79;21025;-75
2022/02/25 06:18:54;;;;;;;4.12;3.40;;;;;;;2.52;74.35;100206.70;2184155;79;20986;-76
2022/02/25 06:21:55;;;;;;;3.72;2.85;;;;;;;2.89;73.99;100213.48;2182222;79;21065;-74
2022/02/25 06:25:02;;;;;;;4.75;3.22;;;;;;;2.92;73.22;100207.19;2181201;79;21072;-75
2022/02/25 06:28:04;;;;;;;2.72;2.52;;;;;;;2.80;73.09;100216.80;2179694;79;21547;-75
2022/02/25 06:31:06;;;;;;;7.72;3.87;;;;;;;2.74;73.02;100225.61;2169539;80;21596;-78
2022/02/25 06:34:07;;;;;;;15.45;7.20;;;;;;;2.72;73.02;100231.43;2184042;79;20997;-74
2022/02/25 06:37:09;;;;;;;6.53;3.42;;;;;;;2.64;73.03;100228.89;2189629;79;21063;-75
2022/02/25 06:40:12;;;;;;;9.58;5.15;;;;;;;2.59;73.04;100234.10;2210405;79;21021;-78
2022/02/25 06:43:18;;;;;;;6.58;3.40;;;;;;;2.52;73.24;100245.52;2144368;81;21116;-77
2022/02/25 06:46:20;;;;;;;3.98;2.83;;;;;;;2.46;73.21;100259.06;2152560;81;21559;-75
2022/02/25 06:49:23;;;;;;;5.65;2.85;;;;;;;2.35;73.63;100259.84;2181836;79;21028;-75
2022/02/25 06:52:25;;;;;;;5.70;2.37;;;;;;;2.21;73.23;100250.35;2209671;79;21053;-78
2022/02/25 06:55:26;;;;;;;4.03;3.02;;;;;;;2.12;73.10;100251.02;2199987;79;21054;-76
2022/02/25 06:58:28;;;;;;;4.90;2.80;;;;;;;2.11;73.24;100265.51;2183300;80;21010;-78
2022/02/25 07:01:30;;;;;;;6.40;3.25;;;;;;;2.13;73.12;100270.17;2133220;81;21029;-74
2022/02/25 07:04:31;;;;;;;7.40;3.02;;;;;;;2.17;73.30;100278.19;2192202;79;21093;-73
2022/02/25 07:07:40;;;;;;;7.30;3.00;;;;;;;2.18;73.25;100284.61;2131797;81;21607;-75
2022/02/25 07:10:41;;;;;;;4.30;2.85;;;;;;;2.20;73.24;100293.20;2147877;80;21382;-73
2022/02/25 07:13:44;;;;;;;6.47;2.75;;;;;;;2.20;73.24;100298.44;2175110;80;20969;-73
2022/02/25 07:16:47;;;;;;;6.92;3.02;;;;;;;2.20;73.02;100301.05;2171925;81;21139;-74
2022/02/25 07:19:49;;;;;;;5.95;3.45;;;;;;;2.21;73.13;100309.26;2146807;81;21020;-76
2022/02/25 07:22:51;;;;;;;5.92;3.25;;;;;;;2.35;73.32;100312.21;2145210;81;21068;-77
2022/02/25 07:25:56;;;;;;;5.70;3.05;;;;;;;2.61;73.35;100311.64;2175698;80;20950;-78
2022/02/25 07:29:00;;;;;;;3.33;2.67;;;;;;;3.14;73.53;100317.84;2176158;80;21714;-73
2022/02/25 07:32:04;;;;;;;4.15;3.30;;;;;;;3.98;73.17;100325.85;2177521;81;21064;-73
2022/02/25 07:35:11;;;;;;;5.47;3.50;;;;;;;4.41;72.10;100326.41;2139200;82;21075;-75
2022/02/25 07:38:12;;;;;;;9.15;3.37;;;;;;;4.24;70.40;100330.86;2156953;81;20984;-78
2022/02/25 07:41:15;;;;;;;7.55;3.42;;;;;;;4.05;70.64;100340.64;2160661;81;21042;-74
2022/02/25 07:44:21;;;;;;;6.17;3.27;;;;;;;4.04;69.93;100345.06;2164486;81;20992;-75
2022/02/25 07:47:26;;;;;;;7.97;4.37;;;;;;;3.96;70.25;100340.05;2130470;82;21057;-76
2022/02/25 07:50:27;;;;;;;9.98;3.90;;;;;;;3.85;69.56;100343.98;2191648;80;21021;-74
2022/02/25 07:53:32;;;;;;;7.78;3.70;;;;;;;3.76;69.76;100349.47;2187109;80;21599;-77
2022/02/25 07:56:39;;;;;;;8.95;5.20;;;;;;;3.80;69.84;100360.94;2201982;79;21145;-82
2022/02/25 07:59:42;;;;;;;11.93;7.10;;;;;;;4.30;69.73;100354.49;2191689;79;21040;-79
2022/02/25 08:02:47;;;;;;;11.75;5.80;;;;;;;4.86;69.07;100364.42;2152003;81;21134;-81
2022/02/25 08:05:48;;;;;;;5.65;3.17;;;;;;;5.36;67.43;100366.52;2193269;79;21047;-82
2022/02/25 08:08:50;;;;;;;4.97;2.80;;;;;;;5.75;67.04;100368.93;2167135;79;20997;-79
2022/02/25 08:11:52;;;;;;;8.58;3.00;;;;;;;6.14;66.62;100373.13;2185783;79;21012;-80
2022/02/25 08:14:55;;;;;;;5.83;3.60;;;;;;;6.54;66.19;100363.06;2195295;79;21001;-79
2022/02/25 08:17:57;;;;;;;5.35;3.00;;;;;;;6.65;62.74;100366.08;2188418;79;21004;-80
2022/02/25 08:21:01;;;;;;;7.22;3.22;;;;;;;6.62;64.22;100379.05;2187271;79;21084;-80
2022/02/25 08:24:06;;;;;;;4.35;2.50;;;;;;;6.85;62.76;100378.33;2212493;79;21606;-80
2022/02/25 08:27:11;;;;;;;6.20;2.90;;;;;;;6.92;62.31;100371.52;2151918;81;21018;-81
2022/02/25 08:30:15;;;;;;;13.55;5.17;;;;;;;6.68;61.66;100384.27;2214578;80;21016;-83
2022/02/25 08:33:19;;;;;;;10.30;4.85;;;;;;;6.46;60.89;100387.94;2173121;80;21037;-83
2022/02/25 08:36:23;;;;;;;7.05;3.02;;;;;;;6.06;60.19;100384.30;2214730;79;21021;-80
2022/02/25 08:39:25;;;;;;;5.25;3.45;;;;;;;6.06;61.43;100388.75;2192247;79;20948;-84
2022/02/25 08:42:27;;;;;;;8.33;3.45;;;;;;;6.17;61.26;100391.30;2214112;79;21068;-81
2022/02/25 08:45:31;;;;;;;4.05;2.20;;;;;;;6.05;61.62;100397.59;2212161;79;20958;-81
2022/02/25 08:48:35;;;;;;;5.90;2.40;;;;;;;5.75;60.32;100391.31;2186775;79;21104;-79
2022/02/25 08:51:38;;;;;;;7.28;2.90;;;;;;;5.78;61.39;100398.95;2191121;79;21332;-80
2022/02/25 08:54:40;;;;;;;12.10;3.55;;;;;;;5.67;61.49;100402.13;2205407;80;20990;-82
2022/02/25 08:57:43;;;;;;;6.95;2.77;;;;;;;5.75;61.17;100401.84;2194672;80;21555;-79
2022/02/25 09:00:44;;;;;;;6.62;2.90;;;;;;;6.08;61.13;100406.55;2140616;81;21755;-80
2022/02/25 09:03:52;;;;;;;5.03;2.45;;;;;;;6.18;61.18;100409.25;2138906;81;21536;-81
2022/02/25 09:06:53;;;;;;;5.87;2.60;;;;;;;6.58;61.51;100409.27;2198403;79;21033;-79
2022/02/25 09:09:55;;;;;;;7.30;2.40;;;;;;;6.70;60.71;100416.13;2194958;79;21028;-81
2022/02/25 09:12:57;;;;;;;6.97;2.15;;;;;;;6.63;59.17;100425.53;2193577;79;21012;-79
2022/02/25 09:15:58;;;;;;;6.78;2.67;;;;;;;6.58;59.61;100421.13;2195872;79;21630;-79
2022/02/25 09:19:02;;;;;;;7.10;2.77;;;;;;;6.50;59.10;100424.92;2195714;79;21098;-81
2022/02/25 09:22:06;;;;;;;10.13;2.40;;;;;;;6.43;59.54;100427.26;2196332;80;21620;-79
2022/02/25 09:25:11;;;;;;;7.85;2.98;;;;;;;6.61;59.46;100423.50;2170882;81;21015;-81
2022/02/25 09:28:13;;;;;;;7.58;3.00;;;;;;;6.65;58.10;100424.92;2173614;81;21020;-80
2022/02/25 09:31:16;;;;;;;9.33;2.83;;;;;;;6.86;58.17;100422.68;2168100;81;21017;-81
2022/02/25 09:34:19;;;;;;;8.88;2.65;;;;;;;6.48;58.08;100423.75;2175087;81;21044;-80
2022/02/25 09:37:20;;;;;;;8.80;2.95;;;;;;;6.21;57.78;100430.90;2113085;82;21071;-80
2022/02/25 09:40:24;;;;;;;5.90;2.12;;;;;;;5.95;57.69;100436.23;2194299;80;20990;-82
2022/02/25 09:43:29;;;;;;;6.37;2.22;;;;;;;5.80;57.93;100438.30;2193671;80;21041;-79
2022/02/25 09:46:31;;;;;;;5.70;2.17;;;;;;;6.25;58.26;100441.55;2135881;81;21103;-83
2022/02/25 09:49:33;;;;;;;5.92;2.20;;;;;;;6.49;57.38;100442.55;2138252;82;21117;-79
2022/02/25 09:52:37;;;;;;;6.12;2.10;;;;;;;6.77;56.83;100448.06;2194768;80;21032;-79
2022/02/25 09:55:39;;;;;;;8.65;1.82;;;;;;;7.05;55.51;100442.51;2195954;79;21048;-80
2022/02/25 09:58:41;;;;;;;6.67;1.90;;;;;;;6.81;55.28;100455.22;2191220;80;21715;-82
2022/02/25 10:01:49;;;;;;;7.97;2.65;;;;;;;6.70;55.37;100457.46;2195715;80;21069;-81
2022/02/25 10:04:49;;;;;;;6.45;1.80;;;;;;;6.37;55.44;100459.91;2193670;80;21602;-80
2022/02/25 10:07:51;;;;;;;11.20;2.87;;;;;;;6.04;55.41;100464.43;2158428;80;21579;-87
2022/02/25 10:10:55;;;;;;;6.22;1.80;;;;;;;5.77;55.67;100457.00;2187321;80;21064;-79
2022/02/25 10:14:11;;;;;;;8.78;1.98;;;;;;;5.61;56.38;100465.34;2192554;80;21075;-80
2022/02/25 10:17:22;;;;;;;9.10;2.17;;;;;;;5.52;56.75;100460.36;2182523;79;21492;-80
2022/02/25 10:20:26;;;;;;;6.83;2.40;;;;;;;5.55;57.02;100457.47;2188517;80;21049;-80
2022/02/25 10:23:31;;;;;;;4.83;2.37;;;;;;;5.55;56.95;100456.64;2189539;80;21009;-80
2022/02/25 10:26:36;;;;;;;5.03;2.07;;;;;;;5.56;56.48;100456.50;2170601;80;21121;-80
2022/02/25 10:30:08;;;;;;;4.80;2.05;;;;;;;5.73;56.64;100451.16;2190734;80;21001;-75
2022/02/25 10:33:15;;;;;;;6.28;1.98;;;;;;;5.75;56.63;100451.05;2183935;79;21044;-74
2022/02/25 10:36:22;;;;;;;6.25;2.98;;;;;;;6.09;56.50;100448.25;2188788;80;21563;-74
2022/02/25 10:39:30;;;;;;;9.03;4.87;;;;;;;6.63;56.07;100445.80;2189294;80;21520;-74
2022/02/25 10:42:36;;;;;;;3.30;2.02;;;;;;;7.06;54.11;100430.14;2191922;80;21028;-75
2022/02/25 10:45:41;;;;;;;6.40;2.50;;;;;;;7.39;53.75;100448.73;2188339;80;21040;-76
2022/02/25 10:48:46;;;;;;;4.37;2.12;;;;;;;7.10;52.62;100452.17;2189616;80;21008;-74
2022/02/25 10:51:48;;;;;;;4.58;2.37;;;;;;;7.26;52.11;100448.16;2189470;80;21575;-74
2022/02/25 10:54:50;;;;;;;4.50;2.22;;;;;;;7.38;51.79;100449.23;2190642;80;20997;-76
2022/02/25 10:57:56;;;;;;;4.80;2.10;;;;;;;7.65;53.28;100442.41;2211206;79;20973;-75
2022/02/25 11:01:01;;;;;;;5.17;2.27;;;;;;;7.83;51.49;100449.16;2213530;79;21060;-74
2022/02/25 11:04:13;;;;;;;6.17;2.10;;;;;;;7.86;51.13;100447.05;2214609;79;21522;-75
2022/02/25 11:07:15;;;;;;;7.75;2.30;;;;;;;7.86;50.75;100448.38;2210424;79;21080;-76
2022/02/25 11:10:20;;;;;;;9.50;2.47;;;;;;;7.88;50.27;100446.89;2211927;79;21017;-74
2022/02/25 11:13:22;;;;;;;7.65;2.05;;;;;;;7.81;50.12;100445.31;2186260;79;21031;-75
2022/02/25 11:16:26;;;;;;;7.42;2.20;;;;;;;7.71;49.23;100447.13;2212888;79;21572;-76
2022/02/25 11:19:29;;;;;;;5.37;2.17;;;;;;;7.77;50.51;100451.01;2213433;79;20974;-74
2022/02/25 11:22:33;;;;;;;4.72;2.25;;;;;;;8.00;50.68;100452.88;2214581;79;20993;-75
2022/02/25 11:25:37;;;;;;;5.60;2.27;;;;;;;8.08;49.32;100450.34;2217327;79;21069;-75
2022/02/25 11:28:44;;;;;;;7.83;2.72;;;;;;;8.05;50.24;100452.80;2208517;79;21048;-75
2022/02/25 11:31:51;;;;;;;5.47;2.30;;;;;;;7.95;49.73;100451.98;2213789;79;21010;-75
2022/02/25 11:34:54;;;;;;;5.62;2.30;;;;;;;7.87;49.41;100454.48;2212733;79;21017;-77
2022/02/25 11:38:04;;;;;;;9.15;3.40;;;;;;;7.75;48.42;100445.88;2182897;79;22275;-73
2022/02/25 11:41:16;;;;;;;5.70;2.65;;;;;;;7.77;49.15;100453.19;2172229;80;20998;-73
2022/02/25 11:44:17;;;;;;;12.23;3.95;;;;;;;7.86;48.30;100451.51;2206913;79;21046;-74
2022/02/25 11:47:37;;;;;;;11.75;3.17;;;;;;;7.96;49.62;100451.48;2209770;79;21068;-76
2022/02/25 11:50:40;;;;;;;7.83;3.20;;;;;;;7.93;49.03;100443.84;2210474;79;21550;-75
2022/02/25 11:53:45;;;;;;;6.60;3.33;;;;;;;7.43;49.13;100446.64;2211299;79;21024;-76
2022/02/25 11:57:04;;;;;;;5.70;2.15;;;;;;;7.47;50.01;100449.38;2210315;79;21044;-74
2022/02/25 12:00:11;;;;;;;6.30;2.27;;;;;;;7.27;48.84;100443.25;2211789;79;20989;-75
2022/02/25 12:03:15;;;;;;;5.42;1.95;;;;;;;6.87;49.32;100429.61;2211799;79;21037;-75
2022/02/25 12:06:28;;;;;;;11.70;4.58;;;;;;;6.60;49.81;100444.25;2216698;79;21064;-73
2022/02/25 12:10:00;;;;;;;10.32;4.10;;;;;;;6.41;49.71;100442.85;2209509;79;21041;-77
2022/02/25 12:13:04;;;;;;;6.45;1.90;;;;;;;6.16;49.43;100449.38;2216672;79;21048;-72
2022/02/25 12:16:27;;;;;;;9.20;2.15;;;;;;;5.90;50.58;100461.60;2213859;79;21550;-73
2022/02/25 12:19:31;;;;;;;3.20;1.80;;;;;;;5.80;50.86;100449.70;2184337;79;20993;-80
2022/02/25 12:23:09;;;;;;;3.02;2.10;;;;;;;5.65;49.96;100449.64;2173969;80;21028;-73
2022/02/25 12:26:11;;;;;;;5.90;2.02;;;;;;;5.56;51.01;100451.72;2162564;81;21001;-73
2022/02/25 12:29:19;;;;;;;4.97;2.08;;;;;;;5.87;51.24;100451.33;2157357;81;21100;-75
2022/02/25 12:32:45;;;;;;;3.20;1.80;;;;;;;6.16;50.50;100450.70;2209073;79;21072;-75
2022/02/25 12:35:52;;;;;;;4.08;2.00;;;;;;;6.15;50.11;100449.88;2210346;79;21002;-73
2022/02/25 12:39:20;;;;;;;5.95;2.60;;;;;;;6.11;50.77;100460.33;2206420;79;21114;-73
2022/02/25 12:42:27;;;;;;;6.62;1.67;;;;;;;6.35;50.37;100452.12;2170168;80;21028;-76
2022/02/25 12:45:29;;;;;;;6.10;2.20;;;;;;;6.51;49.98;100453.80;2180785;79;21040;-73
2022/02/25 12:48:34;;;;;;;3.60;1.72;;;;;;;6.44;49.61;100451.33;2171309;80;21742;-74
2022/02/25 12:51:35;;;;;;;4.50;1.77;;;;;;;6.30;49.29;100460.90;2179512;79;21084;-75
2022/02/25 12:54:39;;;;;;;5.60;1.70;;;;;;;6.12;49.07;100444.03;2175918;79;20981;-73
2022/02/25 12:57:43;;;;;;;6.83;2.02;;;;;;;5.93;49.21;100468.41;2174420;79;21592;-73
2022/02/25 13:00:58;;;;;;;4.95;1.77;;;;;;;5.94;49.48;100470.11;2169953;81;21084;-74
2022/02/25 13:04:16;;;;;;;5.37;2.30;;;;;;;6.00;49.85;100463.03;2171696;81;21018;-74
2022/02/25 13:07:24;;;;;;;3.65;1.57;;;;;;;6.24;50.12;100468.84;2171757;81;21017;-77
2022/02/25 13:10:27;;;;;;;6.25;2.10;;;;;;;6.21;49.26;100470.42;2154362;81;21080;-75
2022/02/25 13:13:31;;;;;;;5.70;2.15;;;;;;;6.04;49.68;100471.02;2145335;82;21072;-74
2022/02/25 13:16:32;;;;;;;5.50;1.87;;;;;;;5.94;49.95;100466.16;2145651;82;21076;-73
2022/02/25 13:19:54;;;;;;;7.45;2.10;;;;;;;5.99;49.67;100468.76;2145723;82;21049;-78
2022/02/25 13:22:58;;;;;;;5.72;1.92;;;;;;;6.17;50.44;100462.44;2145892;82;21643;-74
2022/02/25 13:26:04;;;;;;;7.53;2.65;;;;;;;6.40;50.10;100463.11;2148711;82;21041;-73
2022/02/25 13:29:07;;;;;;;5.22;2.33;;;;;;;6.70;50.00;100455.69;2168399;81;21005;-73
2022/02/25 13:32:10;;;;;;;5.97;2.10;;;;;;;6.95;49.79;100454.37;2144114;81;21043;-80
2022/02/25 13:35:14;;;;;;;5.72;1.90;;;;;;;7.11;47.12;100449.88;2163486;81;21076;-75
2022/02/25 13:38:22;;;;;;;4.40;2.10;;;;;;;7.11;46.20;100460.92;2148331;82;21366;-74
2022/02/25 13:41:33;;;;;;;2.35;1.52;;;;;;;7.10;47.39;100463.22;2172293;81;21413;-74
2022/02/25 13:44:37;;;;;;;5.45;1.90;;;;;;;7.12;47.44;100456.84;2147940;81;20998;-73
2022/02/25 13:54:51;;;;;;;6.15;1.90;;;;;;;6.95;47.19;100454.84;2170641;81;21076;-74
2022/02/25 13:57:59;;;;;;;9.10;2.72;;;;;;;6.96;46.50;100453.88;2179464;79;21067;-75
2022/02/25 14:01:01;;;;;;;9.60;4.75;;;;;;;6.67;46.79;100466.96;2188401;79;21028;-76
2022/02/25 14:04:22;;;;;;;7.62;3.55;;;;;;;6.38;47.20;100454.98;2209289;79;21056;-76
2022/02/25 14:07:38;;;;;;;6.33;3.70;;;;;;;6.05;46.96;100461.69;2207133;79;21030;-75
2022/02/25 14:10:40;;;;;;;8.45;3.05;;;;;;;5.83;47.83;100465.23;2210782;79;21009;-77
2022/02/25 14:13:47;;;;;;;5.20;2.40;;;;;;;5.70;47.96;100462.44;2208337;79;21073;-76
2022/02/25 14:16:49;;;;;;;8.80;2.90;;;;;;;5.57;47.77;100453.38;2210975;79;22478;-78
2022/02/25 14:20:17;;;;;;;5.22;2.55;;;;;;;5.60;47.67;100447.41;2208637;79;21017;-74
2022/02/25 14:23:19;;;;;;;7.45;4.12;;;;;;;5.64;47.82;100450.61;2212826;79;21017;-81
2022/02/25 14:26:30;;;;;;;3.65;1.42;;;;;;;5.74;47.34;100454.13;2168310;80;21024;-75
2022/02/25 14:29:31;;;;;;;7.22;2.77;;;;;;;5.83;47.78;100443.34;2142975;81;21068;-75
2022/02/25 14:32:33;;;;;;;15.18;5.85;;;;;;;5.84;46.31;100440.56;2212603;79;21515;-76
2022/02/25 14:35:36;;;;;;;9.18;3.92;;;;;;;5.85;47.16;100440.08;2215012;79;21021;-75
2022/02/25 14:38:42;;;;;;;10.10;4.75;;;;;;;5.85;47.32;100447.98;2211718;79;21060;-79
2022/02/25 14:41:44;;;;;;;9.13;4.30;;;;;;;5.87;47.20;100446.06;2210398;79;21017;-76
2022/02/25 14:44:48;;;;;;;7.35;3.80;;;;;;;5.91;47.10;100452.73;2209986;79;21061;-76
2022/02/25 14:47:50;;;;;;;6.17;2.98;;;;;;;5.92;46.62;100448.32;2186374;79;21445;-76